Time;durP1;ratioP1;P1;durP2;ratioP2;P2;SDS_P1;SDS_P2;PMS_P1;PMS_P2;Temp;Humidity;BMP_temperature;BMP_pressure;BME280_temperature;BME280_humidity;BME280_pressure;Samples;Min_cycle;Max_cycle;Signal;HPM_P1;HPM_P2
2021/04/03 00:02:17;;;;;;;10.60;7.07;;;6.20;24.20;;;;;;5073243;28;20166;-75
2021/04/03 00:04:43;;;;;;;7.80;7.10;;;6.20;24.10;;;;;;5073298;28;20178;-75
2021/04/03 00:07:08;;;;;;;8.83;6.37;;;6.10;24.50;;;;;;5074472;28;20213;-76
2021/04/03 00:09:34;;;;;;;5.67;5.17;;;6.10;23.80;;;;;;5073567;28;20174;-75
2021/04/03 00:11:59;;;;;;;6.33;5.83;;;6.10;23.70;;;;;;5074103;28;20190;-75
2021/04/03 00:14:25;;;;;;;7.60;7.00;;;6.10;23.70;;;;;;5074189;28;20193;-75
2021/04/03 00:16:50;;;;;;;6.83;6.23;;;6.00;23.70;;;;;;5074088;28;20235;-75
2021/04/03 00:19:16;;;;;;;7.13;6.43;;;6.00;23.60;;;;;;5073315;28;20204;-75
2021/04/03 00:21:41;;;;;;;7.97;6.70;;;5.90;23.80;;;;;;5074073;28;20289;-75
2021/04/03 00:24:07;;;;;;;12.30;6.60;;;5.90;23.50;;;;;;5074079;28;20163;-75
2021/04/03 00:26:33;;;;;;;7.87;7.20;;;5.80;23.80;;;;;;5074000;28;20211;-75
2021/04/03 00:28:58;;;;;;;7.87;6.90;;;5.80;23.80;;;;;;5073264;28;20786;-75
2021/04/03 00:31:24;;;;;;;6.47;5.87;;;5.80;23.70;;;;;;5073712;28;20194;-75
2021/04/03 00:33:51;;;;;;;6.53;5.93;;;5.70;23.40;;;;;;5073559;28;20185;-75
2021/04/03 00:36:17;;;;;;;10.73;6.95;;;5.60;23.20;;;;;;5073565;28;20730;-74
2021/04/03 00:38:42;;;;;;;7.53;6.90;;;5.60;23.10;;;;;;5073564;28;20300;-75
2021/04/03 00:41:08;;;;;;;8.80;7.47;;;5.50;23.00;;;;;;5073320;28;20198;-75
2021/04/03 00:43:33;;;;;;;8.10;7.40;;;5.50;23.00;;;;;;5073578;28;20185;-75
2021/04/03 00:45:59;;;;;;;7.33;6.37;;;5.50;23.10;;;;;;5073539;28;20231;-75
2021/04/03 00:48:25;;;;;;;7.50;6.80;;;5.50;23.20;;;;;;5072076;28;20182;-75
2021/04/03 00:50:53;;;;;;;6.77;6.27;;;5.50;23.10;;;;;;5072765;28;20208;-75
2021/04/03 00:53:22;;;;;;;10.10;7.57;;;5.40;23.30;;;;;;5072577;28;20181;-75
2021/04/03 00:55:48;;;;;;;7.65;6.97;;;5.50;23.30;;;;;;5073369;28;20266;-75
2021/04/03 00:58:15;;;;;;;9.30;7.60;;;5.40;23.20;;;;;;5073240;28;20212;-75
2021/04/03 01:00:41;;;;;;;9.00;7.70;;;5.40;23.10;;;;;;5072444;28;20497;-75
2021/04/03 01:03:07;;;;;;;8.73;7.70;;;5.40;23.20;;;;;;5073160;28;20173;-75
2021/04/03 01:05:33;;;;;;;13.30;7.67;;;5.40;23.00;;;;;;5073269;28;20170;-75
2021/04/03 01:07:59;;;;;;;9.38;8.57;;;5.40;22.90;;;;;;5071660;28;20419;-74
2021/04/03 01:10:32;;;;;;;10.33;9.23;;;5.30;22.60;;;;;;5072520;28;20678;-75
2021/04/03 01:13:22;;;;;;;11.70;9.02;;;5.30;21.90;;;;;;5071814;28;20280;-75
2021/04/03 01:16:00;;;;;;;9.73;8.50;;;5.30;21.80;;;;;;5071695;28;20182;-75
2021/04/03 01:18:52;;;;;;;9.30;8.40;;;5.30;21.80;;;;;;5072914;28;20542;-75
2021/04/03 01:21:24;;;;;;;8.65;7.72;;;5.30;22.00;;;;;;5072634;28;20202;-74
2021/04/03 01:24:13;;;;;;;9.68;8.00;;;5.20;22.20;;;;;;5071386;28;20181;-75
2021/04/03 01:27:00;;;;;;;8.38;7.63;;;5.10;22.40;;;;;;5071985;28;20174;-75
2021/04/03 01:29:28;;;;;;;8.60;7.80;;;5.10;22.70;;;;;;5072545;28;20185;-76
2021/04/03 01:32:00;;;;;;;8.35;7.65;;;5.10;22.70;;;;;;5073296;28;20555;-74
2021/04/03 01:34:27;;;;;;;11.50;8.90;;;5.10;22.70;;;;;;5072840;28;20208;-75
2021/04/03 01:37:00;;;;;;;9.52;8.48;;;5.10;22.70;;;;;;5072830;28;20170;-75
2021/04/03 01:39:28;;;;;;;9.57;7.75;;;5.00;22.50;;;;;;5071945;28;20213;-73
2021/04/03 01:42:00;;;;;;;11.52;9.02;;;5.00;22.70;;;;;;5072425;28;20205;-74
2021/04/03 01:44:49;;;;;;;8.38;7.75;;;4.90;22.90;;;;;;5072604;28;20170;-74
2021/04/03 01:47:19;;;;;;;8.25;7.57;;;4.90;23.00;;;;;;5061423;28;20285;-74
2021/04/03 01:49:46;;;;;;;8.68;7.82;;;4.90;23.30;;;;;;5072056;28;20331;-75
2021/04/03 01:52:12;;;;;;;9.02;8.05;;;4.80;23.10;;;;;;5072601;28;20181;-75
2021/04/03 01:54:38;;;;;;;13.97;9.80;;;4.80;23.10;;;;;;5072533;28;20523;-76
2021/04/03 01:57:04;;;;;;;7.93;7.30;;;4.80;23.00;;;;;;5072238;28;20622;-75
2021/04/03 01:59:30;;;;;;;9.37;8.60;;;4.90;22.90;;;;;;5071786;28;20225;-75
2021/04/03 02:01:57;;;;;;;9.40;8.50;;;4.80;23.00;;;;;;5072139;28;20497;-75
2021/04/03 02:04:23;;;;;;;9.95;9.05;;;4.80;22.60;;;;;;5071067;28;20169;-74
2021/04/03 02:06:49;;;;;;;11.77;9.15;;;4.70;22.60;;;;;;5070914;28;20685;-75
2021/04/03 02:09:16;;;;;;;13.03;8.23;;;4.80;22.70;;;;;;5069945;28;20181;-75
2021/04/03 02:11:45;;;;;;;8.38;7.53;;;4.80;22.70;;;;;;5071749;28;20571;-76
2021/04/03 02:14:11;;;;;;;8.50;7.80;;;4.80;22.50;;;;;;5070503;28;20185;-74
2021/04/03 02:16:37;;;;;;;10.20;9.30;;;4.80;22.60;;;;;;5071752;28;20185;-74
2021/04/03 02:19:08;;;;;;;8.40;7.57;;;4.80;22.70;;;;;;5069597;28;20202;-73
2021/04/03 02:21:35;;;;;;;9.73;8.82;;;4.80;22.50;;;;;;5071558;28;20205;-75
2021/04/03 02:24:02;;;;;;;9.38;8.57;;;4.80;22.30;;;;;;5071641;28;20201;-74
2021/04/03 02:26:36;;;;;;;10.02;7.88;;;4.80;22.30;;;;;;5108691;27;20580;-75
2021/04/03 02:29:03;;;;;;;9.32;8.20;;;4.80;22.30;;;;;;5107958;28;20188;-75
2021/04/03 02:31:30;;;;;;;9.10;8.35;;;4.80;22.30;;;;;;5108595;28;20191;-75
2021/04/03 02:33:55;;;;;;;9.32;8.43;;;4.80;22.40;;;;;;5108816;28;20171;-75
2021/04/03 02:36:21;;;;;;;10.30;9.30;;;4.80;22.40;;;;;;5108568;28;20184;-75
2021/04/03 02:38:51;;;;;;;11.90;10.13;;;4.70;22.40;;;;;;5108551;28;20188;-75
2021/04/03 02:41:23;;;;;;;11.27;8.70;;;4.70;22.30;;;;;;5108597;28;20226;-75
2021/04/03 02:44:11;;;;;;;8.93;8.10;;;4.70;22.60;;;;;;5108534;28;20183;-74
2021/04/03 02:46:45;;;;;;;9.68;8.82;;;4.70;22.60;;;;;;5108600;28;20201;-74
2021/04/03 02:49:41;;;;;;;9.63;8.48;;;4.80;22.60;;;;;;5106257;28;20172;-74
2021/04/03 02:52:09;;;;;;;10.93;7.93;;;4.80;22.30;;;;;;5108319;28;20189;-75
2021/04/03 02:54:36;;;;;;;8.45;7.72;;;4.80;22.10;;;;;;5108715;28;20645;-75
2021/04/03 02:57:05;;;;;;;12.27;8.57;;;4.80;22.20;;;;;;5108252;28;20192;-76
2021/04/03 02:59:35;;;;;;;10.32;9.23;;;4.80;22.30;;;;;;5107512;28;20180;-75
2021/04/03 03:02:02;;;;;;;10.55;9.20;;;4.90;22.30;;;;;;5108078;28;20207;-75
2021/04/03 03:04:28;;;;;;;9.05;8.35;;;4.90;22.20;;;;;;5108032;28;20196;-74
2021/04/03 03:06:57;;;;;;;9.25;8.50;;;5.00;22.10;;;;;;5107896;28;20172;-75
2021/04/03 03:09:23;;;;;;;10.52;9.63;;;5.00;22.00;;;;;;5107236;28;20669;-75
2021/04/03 03:11:54;;;;;;;9.23;8.32;;;5.00;22.00;;;;;;5107605;28;20191;-75
2021/04/03 03:14:22;;;;;;;8.18;7.68;;;5.00;21.80;;;;;;5108298;28;20226;-74
2021/04/03 03:16:50;;;;;;;10.55;8.85;;;5.00;22.00;;;;;;5107766;28;20172;-75
2021/04/03 03:19:16;;;;;;;9.20;8.55;;;5.00;21.90;;;;;;5107269;28;20173;-74
2021/04/03 03:21:42;;;;;;;10.18;9.20;;;4.90;21.90;;;;;;5107535;28;20195;-75
2021/04/03 03:24:10;;;;;;;10.13;9.18;;;4.90;22.00;;;;;;5107420;28;20205;-75
2021/04/03 03:26:37;;;;;;;9.32;7.80;;;4.90;22.00;;;;;;5107591;28;20662;-74
2021/04/03 03:29:05;;;;;;;8.68;7.97;;;4.80;22.10;;;;;;5107237;28;20189;-75
2021/04/03 03:31:30;;;;;;;12.90;9.23;;;4.80;22.30;;;;;;5106378;28;20283;-76
2021/04/03 03:33:57;;;;;;;10.10;8.20;;;4.70;22.40;;;;;;5107316;28;20271;-75
2021/04/03 03:36:24;;;;;;;10.48;7.80;;;4.70;22.60;;;;;;5102940;28;20561;-76
2021/04/03 03:38:50;;;;;;;9.25;8.35;;;4.60;22.50;;;;;;5093437;28;20541;-75
2021/04/03 03:41:17;;;;;;;7.28;6.63;;;4.60;22.50;;;;;;5093673;28;20613;-74
2021/04/03 03:43:43;;;;;;;9.23;8.52;;;4.60;22.50;;;;;;5093643;28;20180;-75
2021/04/03 03:46:09;;;;;;;9.75;8.45;;;4.60;22.40;;;;;;5093469;28;20697;-75
2021/04/03 03:48:35;;;;;;;8.67;7.73;;;4.60;22.20;;;;;;5093703;28;20205;-75
2021/04/03 03:51:00;;;;;;;8.03;7.43;;;4.60;22.30;;;;;;5091592;28;20439;-75
2021/04/03 03:53:26;;;;;;;9.23;8.40;;;4.60;22.30;;;;;;5093640;28;20173;-75
2021/04/03 03:55:53;;;;;;;7.30;6.80;;;4.50;22.40;;;;;;5093528;28;20169;-74
2021/04/03 03:58:19;;;;;;;7.68;7.07;;;4.60;22.50;;;;;;5093368;28;20173;-75
2021/04/03 04:00:45;;;;;;;17.98;8.60;;;4.50;22.40;;;;;;5092679;28;20292;-75
2021/04/03 04:03:10;;;;;;;9.80;8.87;;;4.50;22.50;;;;;;5092027;28;20271;-76
2021/04/03 04:05:36;;;;;;;8.93;8.27;;;4.50;22.50;;;;;;5093289;28;20208;-75
2021/04/03 04:08:02;;;;;;;9.83;7.10;;;4.60;22.30;;;;;;5093223;28;20451;-75
2021/04/03 04:10:28;;;;;;;8.37;7.73;;;4.50;22.30;;;;;;5092588;28;20193;-74
2021/04/03 04:12:53;;;;;;;8.43;7.80;;;4.60;22.40;;;;;;5092949;28;20205;-74
2021/04/03 04:15:22;;;;;;;7.70;7.03;;;4.50;22.30;;;;;;5092914;28;20422;-75
2021/04/03 04:17:47;;;;;;;8.38;7.57;;;4.60;22.40;;;;;;5093203;28;20585;-75
2021/04/03 04:20:14;;;;;;;8.63;7.57;;;4.50;22.40;;;;;;5091405;28;20257;-74
2021/04/03 04:22:39;;;;;;;8.75;7.57;;;4.50;22.70;;;;;;5093025;28;20541;-75
2021/04/03 04:25:06;;;;;;;8.10;7.33;;;4.40;22.70;;;;;;5091344;28;20215;-75
2021/04/03 04:27:31;;;;;;;7.75;7.15;;;4.40;22.90;;;;;;5093044;28;20168;-74
2021/04/03 04:30:08;;;;;;;8.30;7.60;;;4.40;23.20;;;;;;5092459;28;20697;-74
2021/04/03 04:32:41;;;;;;;7.43;6.75;;;4.40;23.20;;;;;;5092458;28;20166;-76
2021/04/03 04:35:08;;;;;;;8.52;7.72;;;4.40;23.50;;;;;;5092694;28;20180;-75
2021/04/03 04:37:35;;;;;;;7.68;7.00;;;4.30;23.40;;;;;;5092661;28;20676;-75
2021/04/03 04:40:01;;;;;;;7.35;6.75;;;4.30;23.30;;;;;;5092017;28;20199;-74
2021/04/03 04:42:26;;;;;;;8.83;8.17;;;4.30;23.60;;;;;;5092513;28;20184;-75
2021/04/03 04:44:52;;;;;;;8.20;7.43;;;4.40;23.50;;;;;;5092589;28;20822;-74
2021/04/03 04:47:18;;;;;;;12.63;7.50;;;4.40;23.40;;;;;;5092564;28;20170;-75
2021/04/03 04:49:44;;;;;;;9.20;6.95;;;4.40;23.40;;;;;;5091189;28;20177;-75
2021/04/03 04:52:10;;;;;;;7.60;6.90;;;4.40;23.50;;;;;;5092680;28;20556;-75
2021/04/03 04:54:35;;;;;;;9.03;7.90;;;4.40;23.60;;;;;;5092689;28;20184;-75
2021/04/03 04:57:01;;;;;;;8.53;7.83;;;4.40;23.50;;;;;;5092691;28;20176;-75
2021/04/03 04:59:26;;;;;;;10.43;9.13;;;4.50;23.60;;;;;;5091801;28;20188;-75
2021/04/03 05:01:52;;;;;;;8.40;7.70;;;4.50;23.40;;;;;;5090886;28;20204;-75
2021/04/03 05:04:18;;;;;;;8.30;7.50;;;4.50;23.20;;;;;;5092292;28;20242;-74
2021/04/03 05:06:43;;;;;;;8.90;7.90;;;4.50;23.50;;;;;;5092176;28;20181;-74
2021/04/03 05:09:09;;;;;;;9.00;7.60;;;4.50;23.70;;;;;;5091539;28;20170;-75
2021/04/03 05:11:36;;;;;;;9.40;7.63;;;4.50;23.40;;;;;;5092241;28;20198;-75
2021/04/03 05:14:02;;;;;;;8.95;6.65;;;4.50;23.40;;;;;;5092015;28;20211;-74
2021/04/03 05:16:27;;;;;;;12.27;8.02;;;4.50;23.60;;;;;;5090990;28;20177;-74
2021/04/03 05:18:53;;;;;;;8.77;7.80;;;4.50;23.50;;;;;;5090253;28;20180;-74
2021/04/03 05:21:18;;;;;;;8.00;7.20;;;4.50;23.60;;;;;;5091872;28;20530;-76
2021/04/03 05:23:44;;;;;;;9.03;6.40;;;4.60;23.20;;;;;;5092152;28;20250;-73
2021/04/03 05:26:09;;;;;;;8.30;7.50;;;4.60;23.10;;;;;;5091848;28;20262;-74
2021/04/03 05:28:35;;;;;;;8.40;7.70;;;4.50;23.40;;;;;;5091711;28;20185;-76
2021/04/03 05:31:00;;;;;;;16.53;6.83;;;4.50;23.50;;;;;;5089895;28;20200;-74
2021/04/03 05:33:26;;;;;;;8.53;7.70;;;4.40;23.70;;;;;;5090762;28;20183;-74
2021/04/03 05:35:52;;;;;;;10.13;6.70;;;4.40;23.90;;;;;;5091733;28;20186;-74
2021/04/03 05:38:17;;;;;;;9.50;8.53;;;4.40;23.90;;;;;;5091582;28;20178;-73
2021/04/03 05:40:43;;;;;;;7.50;6.87;;;4.40;23.90;;;;;;5090750;28;20201;-76
2021/04/03 05:43:09;;;;;;;9.13;8.33;;;4.50;24.00;;;;;;5096469;28;20173;-75
2021/04/03 05:45:37;;;;;;;8.25;7.55;;;4.90;23.30;;;;;;5091352;28;20565;-75
2021/04/03 05:48:04;;;;;;;10.30;8.90;;;5.00;22.30;;;;;;5090036;28;20173;-75
2021/04/03 05:50:31;;;;;;;12.57;7.00;;;5.00;22.10;;;;;;5089433;28;20199;-75
2021/04/03 05:52:58;;;;;;;7.80;7.20;;;5.00;22.10;;;;;;5091443;28;20173;-75
2021/04/03 05:55:25;;;;;;;14.93;8.48;;;4.90;22.10;;;;;;5091820;28;20192;-75
2021/04/03 05:57:51;;;;;;;10.32;7.93;;;4.90;22.50;;;;;;5091562;28;20173;-75
2021/04/03 06:00:18;;;;;;;9.40;7.60;;;4.80;23.00;;;;;;5092230;28;20595;-75
2021/04/03 06:02:52;;;;;;;8.23;7.35;;;4.80;22.90;;;;;;5091884;28;20209;-75
2021/04/03 06:05:17;;;;;;;7.40;6.75;;;4.80;22.60;;;;;;5093398;28;20224;-75
2021/04/03 06:07:43;;;;;;;7.07;6.50;;;4.80;23.30;;;;;;5092902;28;20173;-75
2021/04/03 06:10:10;;;;;;;8.50;7.80;;;4.80;24.00;;;;;;5091039;28;20206;-74
2021/04/03 06:12:47;;;;;;;7.57;6.82;;;4.80;23.60;;;;;;5090859;28;20185;-74
2021/04/03 06:15:28;;;;;;;8.57;7.88;;;4.90;23.60;;;;;;5093648;28;20164;-75
2021/04/03 06:17:57;;;;;;;8.23;7.38;;;5.00;23.00;;;;;;5091293;28;20185;-74
2021/04/03 06:20:30;;;;;;;8.57;7.88;;;5.00;23.00;;;;;;5093921;28;20209;-74
2021/04/03 06:22:56;;;;;;;8.25;7.65;;;5.10;23.20;;;;;;5091456;28;20812;-75
2021/04/03 06:25:21;;;;;;;8.40;7.50;;;5.20;22.40;;;;;;5090066;28;20204;-75
2021/04/03 06:27:47;;;;;;;7.93;7.20;;;5.20;22.70;;;;;;5092577;28;20177;-74
2021/04/03 06:30:39;;;;;;;8.80;7.33;;;5.30;22.20;;;;;;5090734;28;20193;-74
2021/04/03 06:33:21;;;;;;;8.48;7.78;;;5.40;22.10;;;;;;5092073;28;20158;-74
2021/04/03 06:36:08;;;;;;;13.43;8.68;;;5.50;22.20;;;;;;5092010;28;20260;-74
2021/04/03 06:38:34;;;;;;;10.07;8.88;;;5.70;21.60;;;;;;5092962;28;20642;-73
2021/04/03 06:41:21;;;;;;;8.43;7.85;;;5.70;20.60;;;;;;5092820;28;20193;-74
2021/04/03 06:44:10;;;;;;;8.05;7.65;;;5.90;20.70;;;;;;5091352;28;20231;-74
2021/04/03 06:46:40;;;;;;;10.70;9.60;;;6.00;20.30;;;;;;5091701;28;20205;-75
2021/04/03 06:49:07;;;;;;;9.40;8.80;;;6.00;19.80;;;;;;5090043;28;20183;-74
2021/04/03 06:51:34;;;;;;;9.32;8.73;;;6.00;20.40;;;;;;5092003;28;20250;-74
2021/04/03 06:54:01;;;;;;;10.50;9.70;;;6.10;20.00;;;;;;5092282;28;20166;-74
2021/04/03 06:56:34;;;;;;;10.98;10.05;;;6.30;19.40;;;;;;5093165;28;20177;-74
2021/04/03 06:59:05;;;;;;;9.85;9.05;;;6.40;18.90;;;;;;5093379;28;20177;-74
2021/04/03 07:01:46;;;;;;;10.00;9.40;;;6.50;18.90;;;;;;5091780;28;20224;-74
2021/04/03 07:04:20;;;;;;;9.43;8.90;;;6.70;18.60;;;;;;5092020;28;20260;-75
2021/04/03 07:06:47;;;;;;;10.88;10.18;;;6.90;18.30;;;;;;5091247;28;20181;-75
2021/04/03 07:09:13;;;;;;;11.63;10.63;;;7.00;18.30;;;;;;5092123;28;20170;-75
2021/04/03 07:11:40;;;;;;;11.50;10.60;;;7.10;17.90;;;;;;5093187;28;20189;-74
2021/04/03 07:14:07;;;;;;;10.52;9.88;;;7.00;17.60;;;;;;5096092;28;20265;-75
2021/04/03 07:16:34;;;;;;;10.13;9.57;;;6.90;18.00;;;;;;5095818;28;20584;-74
2021/04/03 07:19:04;;;;;;;11.35;10.55;;;7.10;17.30;;;;;;5095626;28;20544;-75
2021/04/03 07:21:29;;;;;;;10.25;9.52;;;7.10;16.90;;;;;;5095974;28;20323;-75
2021/04/03 07:23:58;;;;;;;10.83;10.33;;;7.10;17.20;;;;;;5096305;28;20204;-75
2021/04/03 07:26:24;;;;;;;10.85;10.20;;;7.10;17.20;;;;;;5095546;28;20293;-75
2021/04/03 07:28:49;;;;;;;10.63;10.00;;;7.10;16.50;;;;;;5095308;28;20661;-76
2021/04/03 07:31:42;;;;;;;10.40;9.90;;;7.10;17.20;;;;;;5095857;28;20201;-73
2021/04/03 07:34:10;;;;;;;12.48;11.45;;;7.20;17.10;;;;;;5095339;28;20170;-74
2021/04/03 07:36:41;;;;;;;10.38;9.77;;;7.30;16.70;;;;;;5095674;28;20176;-75
2021/04/03 07:39:27;;;;;;;13.88;10.38;;;7.20;16.50;;;;;;5094234;28;20177;-74
2021/04/03 07:41:53;;;;;;;11.43;10.77;;;7.10;16.90;;;;;;5094849;28;20724;-76
2021/04/03 07:44:18;;;;;;;12.03;11.23;;;7.20;16.20;;;;;;5094489;28;20185;-75
2021/04/03 07:46:46;;;;;;;11.77;11.00;;;7.20;15.70;;;;;;5094191;28;20644;-74
2021/04/03 07:49:31;;;;;;;11.90;10.88;;;7.30;16.10;;;;;;5094495;28;20544;-75
2021/04/03 07:51:57;;;;;;;11.70;11.10;;;7.20;14.80;;;;;;5094955;28;20209;-75
2021/04/03 07:54:25;;;;;;;11.02;10.52;;;7.10;14.70;;;;;;5094539;28;20188;-75
2021/04/03 07:56:53;;;;;;;11.95;11.07;;;7.00;14.70;;;;;;5094580;28;20491;-75
2021/04/03 07:59:43;;;;;;;11.95;10.85;;;7.10;14.40;;;;;;5092974;28;20200;-75
2021/04/03 08:02:20;;;;;;;11.20;10.70;;;7.10;14.70;;;;;;5096279;28;20198;-75
2021/04/03 08:04:45;;;;;;;11.77;11.27;;;7.20;14.70;;;;;;5094614;28;20188;-75
2021/04/03 08:07:12;;;;;;;10.67;9.97;;;7.30;13.80;;;;;;5092313;28;20173;-75
2021/04/03 08:09:37;;;;;;;10.95;10.45;;;7.20;14.80;;;;;;5093803;28;20239;-75
2021/04/03 08:12:05;;;;;;;12.03;11.43;;;7.50;14.40;;;;;;5098779;28;20191;-75
2021/04/03 08:14:32;;;;;;;12.48;11.65;;;7.70;13.50;;;;;;5097487;28;20572;-75
2021/04/03 08:17:00;;;;;;;11.93;11.30;;;7.90;13.50;;;;;;5095328;28;20655;-74
2021/04/03 08:19:32;;;;;;;11.87;11.27;;;8.30;13.30;;;;;;5097403;28;20511;-75
2021/04/03 08:21:59;;;;;;;12.60;11.90;;;8.60;13.30;;;;;;5092323;28;20454;-76
2021/04/03 08:24:25;;;;;;;13.43;12.80;;;8.80;11.70;;;;;;5093880;28;20411;-75
2021/04/03 08:26:51;;;;;;;12.93;12.30;;;8.90;11.70;;;;;;5095584;28;20906;-76
2021/04/03 08:29:23;;;;;;;13.30;12.40;;;8.90;11.70;;;;;;5093519;28;20191;-75
2021/04/03 08:31:49;;;;;;;13.23;12.23;;;8.90;12.00;;;;;;5094015;28;20439;-74
2021/04/03 08:34:14;;;;;;;13.47;12.77;;;8.90;12.00;;;;;;5094218;28;20759;-74
2021/04/03 08:36:40;;;;;;;11.53;11.03;;;9.10;11.20;;;;;;5093455;28;20483;-75
2021/04/03 08:39:08;;;;;;;13.03;12.43;;;9.10;11.60;;;;;;5061765;22;20229;-71
2021/04/03 08:41:36;;;;;;;12.40;11.80;;;8.90;11.20;;;;;;5033093;28;20544;-71
2021/04/03 08:44:12;;;;;;;13.15;12.45;;;8.70;11.40;;;;;;5032615;28;20413;-71
2021/04/03 08:46:41;;;;;;;12.20;11.70;;;8.40;12.10;;;;;;5033776;28;20359;-70
2021/04/03 08:49:07;;;;;;;12.67;11.97;;;8.10;12.20;;;;;;5062592;28;20200;-71
2021/04/03 08:51:32;;;;;;;14.33;13.13;;;7.90;12.80;;;;;;5051908;28;20471;-71
2021/04/03 08:53:58;;;;;;;12.83;12.03;;;7.70;13.30;;;;;;5051919;28;20171;-70
2021/04/03 08:56:33;;;;;;;11.67;11.03;;;7.60;13.30;;;;;;5050621;28;20216;-71
2021/04/03 08:59:01;;;;;;;13.23;12.45;;;7.50;13.20;;;;;;5051674;28;20430;-71
2021/04/03 09:01:30;;;;;;;12.15;11.55;;;7.50;13.70;;;;;;5052880;28;20179;-71
2021/04/03 09:04:01;;;;;;;12.05;11.55;;;7.60;13.80;;;;;;5052041;28;20182;-70
2021/04/03 09:06:55;;;;;;;13.98;13.00;;;7.90;13.90;;;;;;5051640;28;20200;-72
2021/04/03 09:09:28;;;;;;;12.50;11.90;;;7.90;14.00;;;;;;5051157;28;20195;-70
2021/04/03 09:11:56;;;;;;;12.75;12.00;;;7.70;13.30;;;;;;5052404;28;20168;-70
2021/04/03 09:14:28;;;;;;;12.15;11.38;;;7.60;13.70;;;;;;5051615;28;20172;-70
2021/04/03 09:16:54;;;;;;;12.90;12.15;;;7.60;14.40;;;;;;5051660;28;20186;-70
2021/04/03 09:19:28;;;;;;;12.45;11.85;;;7.70;14.90;;;;;;5051323;28;20197;-70
2021/04/03 09:21:55;;;;;;;11.93;11.30;;;7.50;15.30;;;;;;5051631;28;20170;-70
2021/04/03 09:24:45;;;;;;;12.13;11.35;;;7.40;15.80;;;;;;5051426;28;20171;-70
2021/04/03 09:27:19;;;;;;;12.73;11.20;;;7.30;15.50;;;;;;5051335;28;20178;-70
2021/04/03 09:29:47;;;;;;;13.85;12.48;;;7.30;15.60;;;;;;5051449;28;20171;-70
2021/04/03 09:32:15;;;;;;;11.38;10.88;;;7.30;15.80;;;;;;5051512;28;20183;-70
2021/04/03 09:34:41;;;;;;;11.00;10.60;;;7.30;15.60;;;;;;5050684;28;20218;-70
2021/04/03 09:37:12;;;;;;;13.05;11.90;;;7.20;15.80;;;;;;5051880;28;20193;-70
2021/04/03 09:39:56;;;;;;;12.15;11.40;;;7.40;15.80;;;;;;5050423;28;20213;-69
2021/04/03 09:42:24;;;;;;;11.80;11.20;;;7.60;15.20;;;;;;5051565;28;20210;-70
2021/04/03 09:44:51;;;;;;;13.43;12.75;;;7.60;15.10;;;;;;5050970;28;20538;-70
2021/04/03 09:47:17;;;;;;;13.40;12.50;;;7.80;14.70;;;;;;5050207;28;20171;-71
2021/04/03 09:49:45;;;;;;;13.88;13.18;;;7.90;14.60;;;;;;5051695;28;20670;-71
2021/04/03 09:52:10;;;;;;;12.70;12.10;;;8.10;14.40;;;;;;5052351;28;20569;-71
2021/04/03 09:54:36;;;;;;;14.57;13.67;;;8.20;14.30;;;;;;5053270;28;20175;-72
2021/04/03 09:57:03;;;;;;;14.77;13.55;;;8.20;13.60;;;;;;5050598;28;20184;-72
2021/04/03 09:59:29;;;;;;;13.67;13.17;;;8.30;12.90;;;;;;5050463;28;20199;-71
2021/04/03 10:01:59;;;;;;;13.03;12.33;;;8.30;13.70;;;;;;5051593;28;20408;-71
2021/04/03 10:04:26;;;;;;;14.30;13.03;;;8.40;13.40;;;;;;5051387;28;20414;-71
2021/04/03 10:06:52;;;;;;;14.20;13.60;;;8.80;12.20;;;;;;5051478;28;20479;-71
2021/04/03 10:09:18;;;;;;;14.60;13.90;;;8.90;12.30;;;;;;5050862;28;20436;-68
2021/04/03 10:11:44;;;;;;;13.90;13.30;;;9.10;11.30;;;;;;5051144;28;20430;-71
2021/04/03 10:14:10;;;;;;;13.70;13.00;;;9.20;10.90;;;;;;5052085;28;20404;-71
2021/04/03 10:16:35;;;;;;;14.00;13.30;;;9.20;11.00;;;;;;5050905;28;20201;-71
2021/04/03 10:19:01;;;;;;;14.30;13.70;;;9.00;11.00;;;;;;5049738;28;20487;-71
2021/04/03 10:21:27;;;;;;;13.23;12.63;;;9.00;12.30;;;;;;5050948;28;20231;-72
2021/04/03 10:23:53;;;;;;;13.80;13.00;;;9.00;11.60;;;;;;5050671;28;20651;-70
2021/04/03 10:26:19;;;;;;;14.10;13.40;;;8.70;11.90;;;;;;5050553;28;20682;-71
2021/04/03 10:28:45;;;;;;;14.00;13.40;;;8.50;12.10;;;;;;5050236;28;20428;-72
2021/04/03 10:31:11;;;;;;;13.67;12.80;;;8.40;12.70;;;;;;5051135;28;20935;-70
2021/04/03 10:33:37;;;;;;;14.13;13.50;;;8.50;12.10;;;;;;5050412;28;20407;-71
2021/04/03 10:36:07;;;;;;;14.47;13.67;;;9.10;10.70;;;;;;5050615;28;20807;-72
2021/04/03 10:38:34;;;;;;;14.50;13.90;;;9.70;10.90;;;;;;5050961;28;20808;-71
2021/04/03 10:41:00;;;;;;;15.73;14.93;;;10.20;9.60;;;;;;5050417;28;20409;-70
2021/04/03 10:43:26;;;;;;;15.87;15.00;;;10.40;8.40;;;;;;5051185;28;20442;-71
2021/04/03 10:45:51;;;;;;;14.77;14.17;;;10.10;8.50;;;;;;5051480;28;20460;-72
2021/04/03 10:48:17;;;;;;;15.00;14.27;;;9.60;9.60;;;;;;5054245;28;20436;-71
2021/04/03 10:50:43;;;;;;;14.90;14.20;;;9.50;9.80;;;;;;5054051;28;20175;-72
2021/04/03 10:53:09;;;;;;;15.80;14.93;;;9.40;10.10;;;;;;5056130;28;20177;-72
2021/04/03 10:55:35;;;;;;;14.20;13.70;;;9.40;10.00;;;;;;5055046;28;20266;-71
2021/04/03 10:58:00;;;;;;;14.43;13.63;;;9.30;10.00;;;;;;5054413;28;20467;-70
2021/04/03 11:00:26;;;;;;;14.60;13.70;;;9.30;10.00;;;;;;5055772;28;20184;-71
2021/04/03 11:02:52;;;;;;;14.50;13.90;;;9.30;10.40;;;;;;5054645;28;20181;-70
2021/04/03 11:05:18;;;;;;;14.90;14.20;;;9.40;10.50;;;;;;5055548;28;20486;-71
2021/04/03 11:07:44;;;;;;;14.50;13.90;;;9.30;10.00;;;;;;5053994;28;20565;-71
2021/04/03 11:10:15;;;;;;;14.40;13.60;;;9.40;10.60;;;;;;5053538;28;20833;-71
2021/04/03 11:12:41;;;;;;;14.50;13.80;;;9.80;10.30;;;;;;5055126;28;20178;-71
2021/04/03 11:15:08;;;;;;;15.17;14.47;;;10.10;9.70;;;;;;5055534;28;20409;-72
2021/04/03 11:17:33;;;;;;;14.60;13.90;;;10.30;8.50;;;;;;5053704;28;20467;-70
2021/04/03 11:19:59;;;;;;;15.20;14.50;;;10.40;8.30;;;;;;5053185;28;20421;-71
2021/04/03 11:22:24;;;;;;;15.67;14.97;;;10.20;8.30;;;;;;5054157;28;20182;-71
2021/04/03 11:24:51;;;;;;;15.17;14.57;;;10.10;8.20;;;;;;5052442;28;20287;-71
2021/04/03 11:27:16;;;;;;;15.87;15.10;;;10.00;8.10;;;;;;5053862;28;20192;-72
2021/04/03 11:29:42;;;;;;;15.77;15.07;;;10.00;8.50;;;;;;5053630;28;20968;-71
2021/04/03 11:32:08;;;;;;;15.00;14.40;;;10.00;7.60;;;;;;5053748;28;20198;-70
2021/04/03 11:34:34;;;;;;;14.93;14.27;;;10.00;8.20;;;;;;5053794;28;20175;-70
2021/04/03 11:36:59;;;;;;;16.10;15.30;;;9.90;8.80;;;;;;5055996;28;20496;-70
2021/04/03 11:39:25;;;;;;;14.70;14.10;;;9.90;8.90;;;;;;5054259;28;20214;-71
2021/04/03 11:41:50;;;;;;;16.10;15.40;;;9.80;8.40;;;;;;5053733;28;20175;-71
2021/04/03 11:44:16;;;;;;;15.57;14.77;;;9.90;8.60;;;;;;5057280;28;20255;-71
2021/04/03 11:46:41;;;;;;;15.93;15.20;;;10.10;6.80;;;;;;5055700;28;20649;-70
2021/04/03 11:49:07;;;;;;;16.50;15.70;;;10.00;7.30;;;;;;5052892;28;20587;-71
2021/04/03 11:51:33;;;;;;;15.60;14.80;;;10.10;7.50;;;;;;5053439;28;20182;-73
2021/04/03 11:53:58;;;;;;;15.03;14.43;;;10.30;7.10;;;;;;5053557;28;20249;-70
2021/04/03 11:56:24;;;;;;;14.50;13.90;;;10.50;6.60;;;;;;5053524;28;20443;-70
2021/04/03 11:58:50;;;;;;;15.03;14.43;;;10.50;6.80;;;;;;5051149;28;20237;-70
2021/04/03 12:01:15;;;;;;;15.07;14.47;;;10.50;6.80;;;;;;5054380;28;20183;-69
2021/04/03 12:03:41;;;;;;;15.93;15.30;;;10.30;8.00;;;;;;5053059;28;20182;-70
2021/04/03 12:06:06;;;;;;;14.90;14.30;;;10.70;6.90;;;;;;5053340;28;20214;-71
2021/04/03 12:08:32;;;;;;;15.30;14.60;;;10.90;6.80;;;;;;5053184;28;20405;-70
2021/04/03 12:10:58;;;;;;;15.90;14.63;;;10.80;6.70;;;;;;5052612;28;20170;-70
2021/04/03 12:13:25;;;;;;;16.37;15.63;;;10.70;6.80;;;;;;5053439;28;20179;-70
2021/04/03 12:15:51;;;;;;;15.40;14.80;;;10.80;6.20;;;;;;5053062;28;20202;-71
2021/04/03 12:18:17;;;;;;;16.93;15.70;;;10.50;6.30;;;;;;5053175;28;20460;-71
2021/04/03 12:20:43;;;;;;;15.30;14.60;;;;;;;;;;5052480;28;20539;-70
2021/04/03 12:23:08;;;;;;;16.53;15.70;;;10.70;6.40;;;;;;5052598;28;20178;-71
2021/04/03 12:25:34;;;;;;;15.33;14.63;;;9.80;8.00;;;;;;5052949;28;20457;-70
2021/04/03 12:27:59;;;;;;;15.37;14.67;;;9.70;7.90;;;;;;5052762;28;20205;-70
2021/04/03 12:30:25;;;;;;;16.43;15.03;;;9.50;8.60;;;;;;5052024;28;20182;-69
2021/04/03 12:32:50;;;;;;;14.73;14.03;;;9.60;8.70;;;;;;5052782;28;20639;-71
2021/04/03 12:35:16;;;;;;;16.70;15.90;;;9.60;8.40;;;;;;5052825;28;20178;-70
2021/04/03 12:37:42;;;;;;;15.30;14.67;;;9.60;8.70;;;;;;5052664;28;20208;-70
2021/04/03 12:40:08;;;;;;;16.27;15.50;;;9.70;8.60;;;;;;5052413;28;20670;-71
2021/04/03 12:42:34;;;;;;;16.10;15.20;;;9.70;7.90;;;;;;5052260;28;20182;-70
2021/04/03 12:45:00;;;;;;;15.77;15.00;;;9.70;8.10;;;;;;5052392;28;20460;-71
2021/04/03 12:47:26;;;;;;;15.83;15.10;;;9.80;7.80;;;;;;5052715;28;20170;-71
2021/04/03 12:49:52;;;;;;;15.80;15.00;;;9.90;7.50;;;;;;5052186;28;20413;-70
2021/04/03 12:52:18;;;;;;;15.30;14.70;;;10.20;5.40;;;;;;5051974;28;20921;-71
2021/04/03 12:54:43;;;;;;;16.73;16.03;;;10.40;5.10;;;;;;5052656;28;20171;-70